PGRO/ROP METAR and TAF weather

Enter ICAO airport designator
Station Type Date Time Source
PGRO METAR 2022/05/24 07:50 UTC NOAA

PGRO 240750Z 07011KT 7SM SCT014 29/25 A2988 RMK LAST


Station Type Date Time Source
PGRO Decoded METAR 2022/05/24 07:50 UTC NOAA

Rota Island, N. Mariana Is, Rota International Airport, GU, United States (PGRO) 14-11N 145-15E
May 24, 2022 - 03:50 AM EDT / 2022.05.24 0750 UTC
Wind: from the ENE (070 degrees) at 13 MPH (11 KT):0
Visibility: 7 mile(s):0
Sky conditions: partly cloudy
Temperature: 84 F (29 C)
Dew Point: 77 F (25 C)
Relative Humidity: 79%
Pressure (altimeter): 29.88 in. Hg (1011 hPa)
ob: PGRO 240750Z 07011KT 7SM SCT014 29/25 A2988 RMK LAST
cycle: 8

Station Type Date Time Source
PGRO TAF 2022/05/24 06:24 UTC NOAA

TAF PGRO 240522Z 2406/2506 09011KT P6SM VCSH SCT018 SCT120

Example: see airport list